x

9410230 - La Jolla, Ca (ljac1) Weather Station

1:54 - Tue 28th Mar 2017 All times are PDT. -7 hours from GMT.

  • Wind
    6mph, 7mph gusts
  • Sea Temp 55°f
  • Luft Temp 65°f
  • Sea Pressure 1016.3mb
  • 9410230 - La Jolla, Ca
  • 9410230 - La Jolla, Ca

More Historic Weather Station data

Upgrade to MSW Pro to gain access to the past 30 days of data for over 8000 Wavebouys and Weather Stations around the globe.

Join Pro

Comparision Forecast

View Surf forecast
   
Di 03/28 1:54 6 7 mph 1016.3mb 55f 65f
1:48 6
mph
1016.4mb 56f 65f
1:42 6 7 mph 1016.5mb 57f 65f
1:36 6 8 mph 1016.5mb 60f 65f
1:30 7 8 mph 1016.4mb 60f 64f
1:24 7
mph
1016.5mb 61f 65f
1:18 6 7 mph 1016.6mb 61f 65f
1:12 6 7 mph 1016.7mb 59f 66f
1:06 5 7 mph 1016.8mb 59f 65f
1:00 3 5 mph 1016.8mb 60f 66f
12:54 3 6 mph 1016.8mb 60f 65f
12:48 7 8 mph 1016.8mb 60f 65f
12:42 6 7 mph 1016.7mb 59f 66f
12:36 5 6 mph 1016.7mb 59f 66f
12:30 7
mph
1016.7mb 60f 65f
12:24 6 7 mph 1016.7mb 60f 65f
12:18 7
mph
1016.8mb 60f 64f
12:12 3 6 mph 1017.1mb 59f 64f
12:06 6 7 mph 1017.1mb 59f 64f
12:00 6
mph
1017.1mb 60f 64f
11:54 5 6 mph 1017.2mb 60f 64f
11:48 6
mph
1017.2mb 60f 64f
11:42 5 7 mph 1017.2mb 59f 64f
11:36 5 7 mph 1017.4mb 59f 64f
11:30 3 6 mph 1017.5mb 58f 64f
11:24 5 6 mph 1017.5mb 59f 63f
11:18 5
mph
1017.5mb 59f 64f
11:12 3 5 mph 1017.4mb 59f 64f
11:06 5 6 mph 1017.5mb 59f 63f
11:00 5 6 mph 1017.5mb 58f 63f
10:54 2 6 mph 1017.5mb 58f 63f
10:48 2 5 mph 1017.5mb 58f 64f
10:42 2 5 mph 1017.6mb 59f 64f
10:36 3 5 mph 1017.6mb 58f 64f
10:30 3 5 mph 1017.6mb 58f 64f
10:24 2 3 mph 1017.6mb 58f 64f
10:18 2 3 mph 1017.6mb 58f 64f
10:12 3
mph
1017.4mb 59f 64f
10:06 2 3 mph 1017.4mb 59f 65f
10:00 1 2 mph 1017.4mb 59f 65f
9:54 3 5 mph 1017.4mb 59f 63f
9:48 5
mph
1017.4mb 59f 63f
9:42 3 5 mph 1017.3mb 59f 63f
9:36 2 3 mph 1017.3mb 60f 64f
9:30 2 3 mph 1017.3mb 59f 64f
9:24 2
mph
1017.2mb 59f 65f
9:18 1 2 mph 1017mb 59f 64f
9:12 2 3 mph 1017mb 60f 63f
9:06 2 3 mph 1017.1mb 60f 64f
9:00 1 2 mph 1017mb 60f 65f
8:54  -  2 mph 1017mb 60f 65f
8:48 2
mph
1017mb 60f 65f
8:42  -  2 mph 1017mb 60f 66f
8:36  -  1 mph 1016.9mb 60f 64f
8:30 2 5 mph 1016.8mb 60f 63f
8:24 3 5 mph 1016.9mb 60f 62f
8:18 2 5 mph 1016.8mb 60f 62f
8:12 3 5 mph 1016.6mb 60f 61f
8:06 5 7 mph 1016.6mb 60f 61f
8:00 5 8 mph 1016.6mb 60f 60f
7:54 8 9 mph 1016.5mb 60f 59f
7:48 7 8 mph 1016.6mb 60f 59f
7:42 6 7 mph 1016.6mb 60f 59f
7:36 6 9 mph 1016.5mb 60f 59f
7:30 9 10 mph 1016.4mb 60f 58f
7:24 7 9 mph 1016.2mb 60f 58f
7:18 8 10 mph 1016mb 60f 58f
7:06 11 14 mph 1015.9mb 60f 57f
7:00 8 11 mph 1015.9mb 60f 57f
6:54 9 13 mph 1015.8mb 60f 56f
6:36 9 11 mph 1015.8mb 61f 57f
6:30 5 7 mph 1015.8mb 61f 58f
6:18 8 9 mph 1015.8mb 61f 58f
6:12 9 10 mph 1015.9mb 61f 59f
6:06 10 11 mph 1015.8mb 61f 58f
6:00 10 11 mph 1015.8mb 61f 58f
5:54 8 11 mph 1015.9mb 61f 58f
5:42 10 14 mph 1015.8mb 61f 57f
5:36 11 15 mph 1015.8mb 62f 58f
5:30 13 15 mph 1015.6mb 62f 57f
5:24 14 15 mph 1015.7mb 62f 57f
5:18 13 14 mph 1015.8mb 62f 57f
5:12 11 14 mph 1015.6mb 62f 57f
5:06 11 15 mph 1015.6mb 62f 57f
5:00 13 14 mph 1015.6mb 62f 57f
4:54 11 14 mph 1015.7mb 62f 57f
4:48 11 13 mph 1015.7mb 62f 58f
4:42 11 13 mph 1015.6mb 62f 58f
4:36 11 13 mph 1015.4mb 62f 58f
4:30 9 11 mph 1015.4mb 62f 58f
4:24 9 11 mph 1015.4mb 62f 58f
4:18 8 11 mph 1015.5mb 62f 58f
4:12 9 11 mph 1015.4mb 62f 58f
4:06 10 13 mph 1015.4mb 62f 58f
4:00 11 13 mph 1015.4mb 62f 58f
3:54 8 9 mph 1015.5mb 62f 59f
3:48 7 8 mph 1015.6mb 62f 59f
3:42 7 8 mph 1015.6mb 61f 59f
3:36 6 8 mph 1015.6mb 61f 58f
3:30 7 9 mph 1015.7mb 61f 58f
3:24 8 10 mph 1015.7mb 61f 58f
3:18 8 10 mph 1015.7mb 61f 58f
3:12 6 7 mph 1015.6mb 61f 58f
3:06 3 9 mph 1015.6mb 61f 58f
3:00 9 11 mph 1015.6mb 61f 58f
2:54 10 11 mph 1015.7mb 61f 58f
2:42 8 9 mph 1015.9mb 61f 59f
2:36 5 6 mph 1016.1mb 61f 59f
2:30 3 6 mph 1016.2mb 61f 59f
2:24 3 6 mph 1016.3mb 61f 59f
2:18 3 7 mph 1016.3mb 61f 59f
2:12 6 8 mph 1016.3mb 61f 59f
2:06 3 9 mph 1016.2mb 61f 60f
2:00 8 11 mph 1016.2mb 61f 60f
1:54 7 10 mph 1016.3mb 61f 60f
1:48 9 10 mph 1016.3mb 61f 60f
1:42 7 9 mph 1016.3mb 61f 60f
1:36 7 8 mph 1016.3mb 61f 60f
1:30 5 6 mph 1016.2mb 61f 60f
1:24 3 6 mph 1016.2mb 61f 60f
1:18 6 7 mph 1016.4mb 61f 60f
1:12 3 5 mph 1016.4mb 61f 60f
1:06 2 3 mph 1016.4mb 61f 60f
1:00 2
mph
1016.3mb 61f 60f
12:54 2 3 mph 1016.3mb 61f 61f
12:48 3
mph
1016.4mb 61f 60f
12:42 1 5 mph 1016.4mb 61f 61f
12:36 3 5 mph 1016.5mb 61f 61f
12:30 3 6 mph 1016.4mb 60f 61f
12:24 5 6 mph 1016.4mb 60f 61f
12:18 5 6 mph 1016.4mb 61f 61f
12:12 3 5 mph 1016.5mb 61f 61f
12:06 2 5 mph 1016.6mb 61f 61f
12:00 2 5 mph 1016.6mb 60f 61f
Mo 03/27 11:54 3 5 mph 1016.7mb 60f 61f
11:48 3 5 mph 1016.7mb 61f 61f
11:42 3 5 mph 1016.7mb 61f 61f
11:36 1 2 mph 1016.8mb 61f 61f
11:30 1 5 mph 1016.8mb 61f 61f
11:24 3 5 mph 1016.8mb 61f 61f
11:18 2 3 mph 1016.7mb 62f 61f
11:12 2 6 mph 1016.6mb 62f 61f
11:06 3 7 mph 1016.6mb 62f 61f
11:00 6 8 mph 1016.7mb 62f 62f
10:54 5 6 mph 1016.7mb 61f 62f
10:48 3 7 mph 1016.7mb 61f 62f
10:42 3 6 mph 1016.6mb 62f 62f
10:36 5 6 mph 1016.6mb 61f 62f
10:30 3 5 mph 1016.4mb 62f 62f
10:24 5 6 mph 1016.4mb 62f 62f
10:18 6 7 mph 1016.5mb 62f 62f
10:12 6 7 mph 1016.5mb 63f 62f
10:06 3 5 mph 1016.6mb 63f 62f
10:00 3 5 mph 1016.5mb 63f 62f
9:54 3 5 mph 1016.6mb 62f 62f
9:48 2 5 mph 1016.4mb 62f 62f
9:42 5 6 mph 1016.3mb 62f 62f
9:36 5 6 mph 1016.2mb 62f 62f
9:30 6
mph
1016.2mb 63f 62f
9:24 5 6 mph 1016.3mb 63f 62f
9:18 6 7 mph 1016.1mb 62f 62f
9:12 5 7 mph 1016.1mb 63f 62f
9:06 5 6 mph 1016mb 63f 62f
9:00 2 5 mph 1015.9mb 63f 62f
8:54 3 6 mph 1015.8mb 63f 62f
8:48 5 6 mph 1015.7mb 62f 62f
8:42 5 6 mph 1015.7mb 62f 62f
8:36 6
mph
1015.9mb 62f 63f
8:30 3 5 mph 1015.9mb 62f 62f
8:24 3 6 mph 1015.8mb 63f 63f
8:18 5 6 mph 1015.9mb 63f 63f
8:12 5 6 mph 1016mb 63f 63f
8:06 2 3 mph 1016mb 61f 63f
8:00 3
mph
1015.8mb 61f 63f
7:54 3 5 mph 1015.6mb 61f 63f
7:48 2 3 mph 1015.4mb 62f 63f
7:42  -  3 mph 1015.4mb 62f 63f
7:36 2 5 mph 1015.3mb 63f 63f
7:30 3 5 mph 1015.6mb 63f 63f
7:24 2 3 mph 1015.4mb 63f 63f
7:18 3
mph
1015.2mb 63f 63f
7:12 3 6 mph 1015.2mb 63f 63f
7:06 5 6 mph 1015.2mb 63f 63f
7:00 5 7 mph 1015.2mb 63f 63f
6:54 6 9 mph 1015.3mb 63f 63f
6:48 8 9 mph 1015.2mb 63f 63f
6:42 7 9 mph 1015.3mb 63f 63f
6:36 8
mph
1015.3mb 63f 63f
6:30 7 9 mph 1015.4mb 64f 63f
6:24 7 9 mph 1015.5mb 64f 64f
6:18 8 9 mph 1015.4mb 64f 64f
6:12 7 9 mph 1015.3mb 63f 64f
6:06 7 8 mph 1015.3mb 63f 64f
6:00 7 8 mph 1015.3mb 63f 64f
5:54 7 8 mph 1015.3mb 64f 64f
5:48 6 9 mph 1015.3mb 64f 64f
5:42 7 8 mph 1015.2mb 64f 64f
5:36 7 8 mph 1015.3mb 64f 64f
5:30 6 7 mph 1015.2mb 64f 64f
5:24 6 8 mph 1015.2mb 64f 64f
5:18 8 9 mph 1015.1mb 64f 63f
5:12 8 10 mph 1015.2mb 64f 63f
5:06 9 11 mph 1015.1mb 64f 63f
5:00 10 11 mph 1015.1mb 64f 63f
4:54 10 11 mph 1015.1mb 64f 63f
4:48 10 13 mph 1015.1mb 64f 63f
4:42 10 11 mph 1015.1mb 64f 63f
4:36 10 13 mph 1015.3mb 64f 63f
4:30 10 13 mph 1015.5mb 64f 64f
4:24 11 14 mph 1015.5mb 64f 64f
4:18 11 16 mph 1015.6mb 64f 64f
4:12 15 16 mph 1015.8mb 64f 63f
4:06 14 16 mph 1015.8mb 64f 64f
4:00 11 14 mph 1015.8mb 64f 64f
3:54 11 14 mph 1015.9mb 64f 64f
3:48 13 14 mph 1015.8mb 64f 64f
3:42 14 15 mph 1015.8mb 64f 63f
3:36 11 14 mph 1015.9mb 64f 64f
3:30 13 15 mph 1016mb 64f 63f
3:24 11 13 mph 1016.1mb 64f 63f
3:18 11 14 mph 1015.9mb 64f 64f
3:12 13 14 mph 1015.8mb 64f 64f
3:06 13 14 mph 1015.8mb 64f 64f
3:00 8 13 mph 1015.8mb 64f 64f
2:54 10 11 mph 1016mb 64f 64f
2:48 10 11 mph 1016mb 64f 64f
2:42 10 11 mph 1016.1mb 64f 64f
2:36 10 13 mph 1016mb 64f 64f
2:30 11 14 mph 1016.1mb 64f 64f
2:24 13 14 mph 1016.2mb 63f 64f
2:18 10 14 mph 1016.2mb 64f 64f
2:12 11 13 mph 1016.1mb 64f 64f
2:06 10 14 mph 1016.1mb 64f 64f
2:00 13 14 mph 1016.2mb 63f 64f
1:54 10 13 mph 1016.1mb 63f 64f
1:48 9 11 mph 1016.2mb 63f 64f
1:42 10
mph
1016.2mb 63f 64f
1:36 8 9 mph 1016.3mb 63f 64f
1:30 7 8 mph 1016.4mb 62f 64f
1:24 7 8 mph 1016.5mb 62f 64f
1:18 6 7 mph 1016.6mb 62f 64f
1:12 6 7 mph 1016.8mb 62f 64f
1:06 6 7 mph 1016.8mb 62f 64f
1:00 5 6 mph 1017mb 63f 64f
12:54 6
mph
1017mb 63f 64f
12:48 5 6 mph 1017.2mb 62f 64f
12:42 3 5 mph 1017.2mb 62f 65f
12:36 3 6 mph 1017.3mb 62f 64f
12:30 5 6 mph 1017.3mb 62f 64f
12:24 6
mph
1017.4mb 62f 64f
12:18 5 6 mph 1017.5mb 61f 64f
12:12 5 6 mph 1017.4mb 61f 65f
12:06 3 5 mph 1017.6mb 61f 66f
12:00 3
mph
1017.4mb 62f 65f
11:54 2 6 mph 1017.5mb 62f 65f
11:48 3 5 mph 1017.5mb 61f 65f
11:42 5
mph
1017.5mb 61f 64f
11:36 5 6 mph 1017.5mb 61f 64f
11:30 5 6 mph 1017.5mb - 64f
11:24 3 5 mph 1017.6mb - 64f
11:18 2 5 mph 1017.6mb 58f 65f
11:12 5 6 mph 1017.7mb 58f 64f
11:06 5 7 mph 1017.8mb 58f 64f
11:00 5 6 mph 1017.9mb 58f 65f
10:54 3 5 mph 1018mb 57f 65f
10:48 3 5 mph 1017.9mb 57f 64f
10:42 3 5 mph 1017.9mb 57f 64f
10:36 3 5 mph 1018mb 57f 64f
10:30 5 7 mph 1018.1mb 58f 64f
10:24 5 7 mph 1018.2mb 58f 63f
10:18 5 7 mph 1018.2mb 58f 63f
10:12 7 8 mph 1018.3mb 58f 63f
10:06 3 6 mph 1018.4mb 59f 63f
10:00 6 7 mph 1018.4mb 60f 63f
9:54 5 6 mph 1018.3mb 60f 63f
9:48 5
mph
1018.2mb 60f 63f
9:42 3
mph
1018mb 60f 63f
9:36 3
mph
1017.9mb 60f 63f
9:30 2 3 mph 1017.8mb 60f 63f
9:24 2 3 mph 1017.7mb 60f 63f
9:18 1 2 mph 1017.7mb 59f 63f
9:12 2 3 mph 1017.7mb 60f 63f
9:06 2 3 mph 1017.7mb 59f 63f
9:00 2
mph
1017.6mb 59f 63f
8:54 2
mph
1017.5mb 60f 63f
8:48 2
mph
1017.5mb 60f 63f
8:42 2 3 mph 1017.6mb 59f 63f
8:36 2 3 mph 1017.5mb 58f 62f
8:30 2
mph
1017.5mb 58f 62f
8:24 1 2 mph 1017.5mb 58f 62f
8:18 1 2 mph 1017.5mb 58f 62f
8:12 1 2 mph 1017.3mb 58f 62f
8:06 2
mph
1017.3mb 58f 62f
8:00 1 2 mph 1017.2mb 58f 62f
7:54 2
mph
1017.1mb 58f 62f
7:48 2 3 mph 1017mb 58f 61f
7:42 3 5 mph 1017mb 58f 61f
7:36 3 5 mph 1016.9mb 58f 61f
7:30 3 5 mph 1016.9mb 58f 61f
7:24 3 5 mph 1016.8mb 58f 61f
7:18 3 5 mph 1016.8mb 58f 61f
7:12 2 3 mph 1016.7mb 58f 60f
7:06 2
mph
1016.7mb 59f 60f
7:00 2 3 mph 1016.7mb 58f 60f
6:54 2 3 mph 1016.7mb 59f 59f
6:48 1 5 mph 1016.7mb 59f 59f
6:42 2 3 mph 1016.6mb 59f 59f
6:36 2 6 mph 1016.5mb 59f 59f
6:30 6 7 mph 1016.3mb 59f 59f
6:24 6 7 mph 1016.1mb 60f 59f
6:18 7 8 mph 1016mb 61f 59f
6:12 6 8 mph 1016mb 61f 60f
6:06 6 8 mph 1016.1mb 61f 60f
6:00 5 6 mph 1016.4mb 61f 60f
5:54 3 6 mph 1016.7mb 62f 60f
5:48 5 6 mph 1016.7mb 62f 60f
5:42 3 5 mph 1016.6mb 62f 60f
5:36 3 5 mph 1016.6mb 62f 60f
5:30 2 3 mph 1016.6mb 62f 60f
5:24 2 3 mph 1016.6mb 62f 60f
5:18 2 3 mph 1016.7mb 62f 60f
5:12 2 5 mph 1016.6mb 62f 60f
5:06 3 5 mph 1016.6mb 62f 61f
5:00 3 5 mph 1016.6mb 62f 60f
4:54 1 3 mph 1016.5mb 62f 61f
4:48 2 3 mph 1016.6mb 62f 61f
4:42 2 3 mph 1016.6mb 62f 61f
4:36 2 3 mph 1016.6mb 62f 61f
4:30 2 3 mph 1016.6mb 62f 61f
4:24 3
mph
1016.6mb 62f 61f
4:18 3
mph
1016.6mb 62f 61f
4:12 3 5 mph 1016.5mb 62f 61f
4:06 3 5 mph 1016.5mb 62f 61f
4:00 2 5 mph 1016.5mb 62f 61f
3:54 3 5 mph 1016.5mb 62f 61f
3:48 3 5 mph 1016.6mb 63f 61f
3:42 2 3 mph 1016.6mb 63f 61f
3:36 2
mph
1016.6mb 63f 61f
3:30 2 3 mph 1016.7mb 63f 61f
3:24 1 2 mph 1016.7mb 63f 61f
3:18  -  2 mph 1016.7mb 63f 61f
3:12 2 3 mph 1016.7mb 63f 61f
3:06 2
mph
1016.8mb 63f 61f
3:00 1 3 mph 1016.8mb 63f 60f
2:54 2 3 mph 1016.7mb 63f 61f
2:48 2 5 mph 1016.8mb 63f 61f
2:42 5
mph
1016.8mb 63f 60f
2:36 2 3 mph 1016.7mb 63f 61f
2:30 2 7 mph 1016.7mb 63f 61f
2:24 5 8 mph 1016.6mb 63f 61f
2:18 6 8 mph 1016.5mb 63f 61f
2:12 5 6 mph 1016.6mb 63f 61f
2:06 3 6 mph 1016.8mb 63f 61f
2:00 3 5 mph 1016.9mb 63f 61f
1:54 2 3 mph 1016.9mb 63f 61f
1:48 3 5 mph 1017mb 63f 61f
1:42 2 3 mph 1017.1mb 63f 61f
1:36 2
mph
1017.2mb 63f 61f
1:30 1 2 mph 1017.2mb 63f 61f
1:24 2 3 mph 1017.3mb 63f 61f
1:18 2
mph
1017.3mb 63f 61f
1:12 2
mph
1017.4mb 63f 62f
1:06 1 2 mph 1017.5mb 63f 61f
1:00 2
mph
1017.5mb 63f 61f
12:54 2 3 mph 1017.6mb 63f 62f
12:48 2 3 mph 1017.6mb 63f 62f
12:42 1 2 mph 1017.6mb 62f 62f
12:36 1 2 mph 1017.7mb 62f 62f
12:30 1 2 mph 1017.7mb 62f 62f
12:24 1 2 mph 1017.6mb 62f 62f
12:18 2
mph
1017.7mb 62f 62f
12:12 2 3 mph 1017.7mb 62f 62f
12:06 3
mph
1017.7mb 62f 62f
12:00 3
mph
1017.7mb 62f 62f
So 03/26 11:54 2 3 mph 1017.6mb 62f 62f
11:48 3
mph
1017.6mb 62f 62f
11:42 2 3 mph 1017.6mb 62f 62f
11:36 2 3 mph 1017.7mb 62f 62f
11:30 3 5 mph 1017.6mb 62f 62f
11:24 3 6 mph 1017.6mb 62f 62f
11:18 5 6 mph 1017.6mb 62f 62f
11:12 5 6 mph 1017.7mb 62f 62f
11:06 1 3 mph 1017.6mb 62f 63f
11:00 2 3 mph 1017.7mb 62f 62f
10:54 2 5 mph 1017.7mb 61f 62f
10:48 3
mph
1017.8mb 61f 62f
10:42 3 5 mph 1017.7mb 61f 62f
10:36 2 5 mph 1017.6mb 59f 63f
10:30 3 5 mph 1017.6mb 59f 63f
10:24 5 6 mph 1017.7mb 58f 62f
10:18 5 7 mph 1017.8mb 58f 63f
10:12 6 7 mph 1017.8mb 60f 63f
10:06 6 7 mph 1017.9mb 60f 62f
10:00 6
mph
1017.8mb 60f 62f
9:54 6 7 mph 1017.9mb 59f 62f
9:48 6 7 mph 1017.9mb 59f 62f
9:42 6 7 mph 1018mb 60f 62f
9:36 6 8 mph 1017.9mb 60f 62f
9:30 8 9 mph 1017.9mb 59f 62f
9:24 8 9 mph 1017.8mb 59f 62f
9:18 6 8 mph 1017.8mb 59f 62f
9:12 7 9 mph 1017.8mb 59f 62f
9:06 7 8 mph 1017.7mb 60f 63f
9:00 6 8 mph 1017.7mb 60f 63f
8:54 7 8 mph 1017.7mb 61f 63f
8:48 6 7 mph 1017.6mb 61f 63f
8:42 6 7 mph 1017.6mb 61f 63f
8:36 6 7 mph 1017.5mb 63f 63f
8:30 6
mph
1017.4mb 63f 63f
8:24 5 7 mph 1017.4mb 63f 63f
8:18 6 7 mph 1017.4mb 63f 63f
8:12 6 7 mph 1017.4mb 63f 63f
8:06 5 6 mph 1017.3mb 63f 63f
8:00 3 5 mph 1017.4mb 63f 63f
7:54 5 6 mph 1017.2mb 63f 63f
7:48 5 6 mph 1017.2mb 63f 63f
7:42 5 6 mph 1017.3mb 63f 63f
7:36 5 6 mph 1017.3mb 63f 63f
7:30 5 6 mph 1017.3mb 63f 63f
7:24 5 6 mph 1017.3mb 63f 63f
7:18 2 3 mph 1017.1mb 64f 63f
7:12 3 5 mph 1017.1mb 64f 63f
7:06 2 3 mph 1017mb 64f 63f
7:00 2 3 mph 1017.1mb 64f 63f
6:54 2 3 mph 1017.1mb 64f 64f
6:48 2 3 mph 1017.1mb 64f 64f
6:42 2 3 mph 1017mb 64f 64f
6:36 2 5 mph 1017mb 64f 64f
6:30 3 6 mph 1017.1mb 64f 64f
6:24 5 6 mph 1017.1mb 64f 64f
6:18 5 6 mph 1017.2mb 64f 65f
6:12 5 6 mph 1017.2mb 64f 65f
6:06 5 6 mph 1017.2mb 64f 65f
6:00 5 6 mph 1017.2mb 64f 65f
5:54 3 7 mph 1017.3mb 64f 65f
5:48 6 8 mph 1017.3mb 64f 65f
5:42 6 8 mph 1017.3mb 64f 65f
5:36 6 7 mph 1017.3mb 63f 64f
5:30 6 8 mph 1017.3mb 63f 65f
5:24 6 8 mph 1017.4mb 64f 65f
5:18 7 8 mph 1017.4mb 63f 65f
5:12 7 8 mph 1017.4mb 63f 64f
5:06 6 9 mph 1017.4mb 64f 65f
5:00 7 11 mph 1017.5mb 64f 64f
4:54 8 10 mph 1017.6mb 63f 64f
4:48 8 10 mph 1017.7mb 63f 64f
4:42 9 10 mph 1017.7mb 63f 64f
4:36 9 10 mph 1017.7mb 63f 63f
4:30 9 10 mph 1017.7mb 63f 63f
4:24 9 10 mph 1017.7mb 63f 63f
4:18 9 10 mph 1017.7mb 63f 63f
4:12 9 10 mph 1017.7mb 63f 63f
4:06 9 10 mph 1017.7mb 64f 63f
4:00 9 10 mph 1017.7mb 64f 63f
3:54 9 10 mph 1017.6mb 63f 63f
3:48 9 10 mph 1017.6mb 63f 63f
3:42 9 10 mph 1017.6mb 63f 63f
3:36 8 9 mph 1017.6mb 63f 63f
3:30 8 10 mph 1017.6mb 63f 63f
3:24 8 10 mph 1017.7mb 63f 63f
3:18 9 10 mph 1017.8mb 63f 63f
3:12 9 10 mph 1017.8mb 63f 63f
3:06 9 10 mph 1017.8mb 63f 63f
3:00 9 10 mph 1017.9mb 63f 63f
2:54 9 10 mph 1017.8mb 63f 63f
2:48 8 10 mph 1017.9mb 63f 63f
2:42 8 10 mph 1017.9mb 63f 63f
2:36 9 10 mph 1018mb 63f 63f
2:30 9 10 mph 1018.1mb 63f 63f
2:24 9 10 mph 1018.1mb 63f 63f
2:18 9 10 mph 1018.2mb 64f 63f
2:12 8 9 mph 1018.2mb 63f 63f
2:06 8 9 mph 1018mb 63f 63f
2:00 7 9 mph 1018.1mb 63f 63f
1:54 9 10 mph 1018.1mb 63f 63f
1:48 8 10 mph 1018.1mb 63f 63f
1:42 8 9 mph 1018.2mb 63f 63f
1:36 8 9 mph 1018.3mb 63f 63f
1:30 7 9 mph 1018.3mb 63f 64f
1:24 7 8 mph 1018.3mb 62f 63f
1:18 6 7 mph 1018.2mb 62f 64f
1:12 6 7 mph 1018.2mb 62f 63f
1:06 6 7 mph 1018.3mb 62f 64f
1:00 6 8 mph 1018.4mb 62f 64f
12:54 6 7 mph 1018.4mb 62f 64f
12:48 7 8 mph 1018.6mb 62f 64f
12:42 6 7 mph 1018.6mb 62f 64f
12:36 5 6 mph 1018.5mb 62f 64f
12:30 5 6 mph 1018.5mb 62f 65f
12:24 3 6 mph 1018.6mb 62f 65f
12:18 3 5 mph 1018.5mb 62f 65f
12:12 3 7 mph 1018.6mb 62f 64f
12:06 6 7 mph 1018.7mb 61f 64f
12:00 5 6 mph 1018.8mb 62f 64f
11:54 6 8 mph 1018.8mb 61f 64f
11:48 6 7 mph 1019mb 61f 64f
11:42 6 7 mph 1019mb 61f 64f
11:36 7 9 mph 1019mb 61f 63f
11:30 8 10 mph 1019.2mb 61f 63f
11:24 8 10 mph 1019.2mb 60f 63f
11:18 7 8 mph 1019.2mb 60f 63f
11:12 7
mph
1019.1mb 58f 63f
11:06 7 8 mph 1019mb 58f 63f
11:00 7 8 mph 1019.1mb 58f 63f
10:54 6 7 mph 1019mb 58f 63f
10:48 6 7 mph 1018.9mb 59f 63f
10:42 6 8 mph 1018.8mb 58f 63f
10:36 7 9 mph 1018.8mb 58f 62f
10:30 8 9 mph 1018.8mb 59f 62f
10:24 9 10 mph 1018.7mb 58f 62f
10:18 9 10 mph 1018.7mb 58f 62f
10:12 9 10 mph 1018.6mb 58f 62f
10:06 8 9 mph 1018.5mb 59f 62f
10:00 7 8 mph 1018.3mb 58f 62f
9:54 6 8 mph 1018.1mb 58f 62f
9:48 7 8 mph 1018.1mb 57f 62f
9:42 5 7 mph 1018mb 58f 62f
9:36 5 6 mph 1018mb 58f 62f
9:30 2 3 mph 1017.9mb 58f 62f
9:24 2 3 mph 1017.8mb 58f 62f
9:18 2 5 mph 1017.8mb 58f 62f
9:12 2 3 mph 1017.9mb 58f 62f
9:06 2 5 mph 1017.9mb 58f 62f
9:00 5 6 mph 1017.9mb 58f 62f
8:54 3 5 mph 1017.9mb 58f 62f
8:48 2 3 mph 1017.9mb 58f 62f
8:42  -  1 mph 1017.8mb 58f 62f
8:36  -  1 mph 1017.8mb 58f 62f
8:30 1 2 mph 1017.8mb 58f 62f
8:24  -  1 mph 1017.8mb 58f 62f
8:18  -  2 mph 1017.8mb 59f 62f
8:12 1 3 mph 1017.7mb 59f 62f
8:06 1 2 mph 1017.5mb 59f 62f
8:00 2 3 mph 1017.5mb 62f 62f
7:54 2 3 mph 1017.5mb 62f 62f
7:48 3 5 mph 1017.5mb 62f 62f
7:42 3 5 mph 1017.4mb 62f 62f
7:36 5
mph
1017.4mb 62f 62f
7:30 5 6 mph 1017.3mb 62f 61f
7:24 5 6 mph 1017.2mb 62f 61f
7:18 3
mph
1017.1mb 62f 62f
7:12 2 3 mph 1017.1mb 62f 62f
7:06 2 5 mph 1017mb 62f 62f
7:00 3
mph
1017mb 62f 62f
6:54 2 3 mph 1016.9mb 62f 62f
6:48 2 3 mph 1016.9mb 62f 62f
6:42 2
mph
1016.9mb 62f 62f
6:36 2
mph
1016.8mb 62f 62f
6:30 1 3 mph 1016.9mb 62f 62f
6:24 2
mph
1016.8mb 62f 62f
6:18 2 3 mph 1016.8mb 62f 62f
6:12  -  1 mph 1016.8mb 62f 62f
6:06  -  2 mph 1016.7mb 62f 62f
6:00 2
mph
1016.7mb 62f 62f
5:54 2 5 mph 1016.7mb 62f 62f
5:48 2 3 mph 1016.7mb 62f 62f
5:42 2 3 mph 1016.7mb 62f 62f
5:36 3 5 mph 1016.7mb 62f 62f
5:30 2 5 mph 1016.7mb 62f 62f
5:24 3 5 mph 1016.6mb 62f 62f
5:18 2 3 mph 1016.6mb 62f 62f
5:12 3 5 mph 1016.5mb 62f 62f
5:06 3 6 mph 1016.5mb 62f 62f
5:00 5 6 mph 1016.4mb 62f 62f
4:54 5 6 mph 1016.4mb 62f 62f
4:48 5 6 mph 1016.3mb 62f 62f
4:42 3 6 mph 1016.3mb 62f 61f
4:36 2 5 mph 1016.3mb 62f 61f
4:30 2 3 mph 1016.3mb 62f 61f
4:24 2 3 mph 1016.3mb 62f 61f
4:18 2 3 mph 1016.3mb 62f 61f
4:12 2 3 mph 1016.2mb 62f 61f
4:06 2 3 mph 1016.1mb 62f 61f
4:00 3 5 mph 1016.2mb 62f 61f
3:54 3 5 mph 1016.2mb 62f 61f
3:48 3
mph
1016.3mb 62f 61f
3:42 2
mph
1016.3mb 62f 61f
3:36 2
mph
1016.3mb 62f 61f
3:30  -  2 mph 1016.4mb 62f 62f
3:24 2
mph
1016.4mb 62f 62f
3:18 2 3 mph 1016.5mb 62f 62f
3:12 2 3 mph 1016.6mb 62f 62f
3:06 3
mph
1016.7mb 63f 62f
3:00 5 6 mph 1016.8mb 63f 62f
2:54 3 5 mph 1016.8mb 63f 62f
2:48 1 3 mph 1016.8mb 63f 62f
2:42 2 3 mph 1016.8mb 63f 62f
2:36 2 3 mph 1016.7mb 63f 62f
2:30 2 3 mph 1016.7mb 63f 62f
2:24 3 5 mph 1016.7mb 63f 62f
2:18 3
mph
1016.8mb 63f 62f
2:12 3
mph
1016.8mb 63f 62f
2:06 3
mph
1016.8mb 63f 62f
2:00 3
mph
1016.8mb 63f 62f
1:54 2 3 mph 1016.8mb 63f 62f
1:48 2 3 mph 1016.8mb 63f 62f
1:42 3 5 mph 1016.9mb 63f 62f
1:36 6
mph
1017.1mb 63f 62f
1:30 5 6 mph 1017.1mb 63f 62f
1:24 3 5 mph 1017.1mb 63f 62f
1:18 3 6 mph 1017.1mb 63f 62f
1:12 3 5 mph 1017.2mb 63f 62f
1:06 5 7 mph 1017.3mb 63f 62f
1:00 3 5 mph 1017.2mb 63f 63f
12:54 5 6 mph 1017.2mb 63f 63f
12:48 6
mph
1017.3mb 63f 63f
12:42 5 6 mph 1017.3mb 63f 63f
12:36 6 7 mph 1017.3mb 63f 63f
12:30 7 8 mph 1017.4mb 63f 63f
12:24 7 8 mph 1017.5mb 63f 63f
12:18 7 10 mph 1017.5mb 63f 63f
12:12 8 9 mph 1017.5mb 63f 63f
12:06 9 10 mph 1017.5mb 63f 63f
12:00 9
mph
1017.5mb 63f 63f
Sa 03/25 11:54 9 10 mph 1017.4mb 63f 63f
11:48 9 10 mph 1017.5mb 63f 63f
11:42 8 9 mph 1017.6mb 63f 63f
11:36 7 9 mph 1017.6mb 63f 63f
11:30 8 10 mph 1017.6mb 63f 63f
11:24 9 11 mph 1017.7mb 63f 63f
11:18 9 10 mph 1017.8mb 63f 63f
11:12 7 9 mph 1017.7mb 63f 63f
11:06 8 9 mph 1017.7mb 63f 63f
11:00 8 9 mph 1017.7mb 62f 63f
10:54 8 11 mph 1017.8mb 62f 63f
10:48 9 11 mph 1017.8mb 63f -
10:42 10 11 mph 1017.8mb 62f -
10:36 10 13 mph 1017.9mb 62f -
10:30 8 9 mph - 62f 63f
10:24 3 5 mph - 61f 63f
10:18 3
mph
1018mb 62f 63f
10:12 2 3 mph 1017.9mb 62f 63f
10:06 3 5 mph 1018mb 60f 63f
10:00 5 6 mph 1018.1mb 59f 63f
9:54 5 6 mph 1018.1mb 59f 63f
9:48 5 6 mph 1018.1mb 59f 63f
9:42 5 7 mph 1018.2mb 58f 63f
9:36 5 7 mph 1018.2mb 58f 63f
9:30 6 7 mph 1018.1mb 58f 63f
9:24 6 8 mph 1018.1mb 58f 63f
9:18 7 8 mph 1018.1mb 58f 63f
9:12 6 8 mph 1018.1mb 59f 63f
9:06 6 8 mph 1018.1mb 59f 63f
9:00 7 8 mph 1018mb 59f 63f
8:54 5 7 mph 1017.9mb 59f 63f
8:48 5 8 mph 1017.8mb 59f 63f
8:42 6 7 mph 1017.8mb 59f 63f
8:36 6 8 mph 1017.7mb 60f 63f
8:30 6 8 mph 1017.7mb 62f 63f
8:24 6 9 mph 1017.6mb 62f 63f
8:18 8
mph
1017.5mb 62f 63f
8:12 6 8 mph 1017.6mb 62f 63f
8:06 7 8 mph 1017.5mb 62f 63f
8:00 7 8 mph 1017.5mb 62f 63f
7:54 7
mph
1017.6mb 63f 63f
7:48 6 7 mph 1017.6mb 63f 63f
7:42 7
mph
1017.6mb 63f 63f
7:36 6 8 mph 1017.6mb 63f 63f
7:30 7 8 mph 1017.5mb 63f 63f
7:24 6 8 mph 1017.4mb 63f 63f
7:18 7 8 mph 1017.4mb 63f 63f
7:12 7 8 mph 1017.3mb 63f 63f
7:06 7 8 mph 1017.4mb 63f 63f
7:00 7
mph
1017.3mb 62f 64f
6:54 7 8 mph 1017.4mb 62f 64f
6:48 7 8 mph 1017.4mb 62f 64f
6:42 6 8 mph 1017.4mb 62f 64f
6:36 7 8 mph 1017.3mb 62f 64f
6:30 7 9 mph 1017.3mb 62f 64f
6:24 7 8 mph 1017.3mb 62f 64f
6:18 8 10 mph 1017.2mb 61f 64f
6:12 8 10 mph 1017.1mb 61f 64f
6:06 8 10 mph 1017.1mb 61f 64f
6:00 9 11 mph 1017mb 61f 64f
5:54 8 10 mph 1017.2mb 61f 64f
5:48 9 10 mph 1017.2mb 60f 64f
5:42 9 10 mph 1017.2mb 60f 64f
5:36 8 9 mph 1017.2mb 60f 64f
5:30 8 9 mph 1017.1mb 61f 64f
5:24 8 9 mph 1017.1mb 60f 64f
5:18 8 9 mph 1017.1mb 61f 64f
5:12 7 9 mph 1017.1mb 61f 64f
5:06 7 9 mph 1017.1mb 61f 64f
5:00 7 8 mph 1017.1mb 61f 64f
4:54 7 9 mph 1017.1mb 61f 64f
4:48 8 10 mph 1017.2mb 61f 64f
4:42 8 10 mph 1017.3mb 61f 64f
4:36 9 11 mph 1017.4mb 61f 64f
4:30 8 9 mph 1017.5mb 61f 64f
4:24 8 9 mph 1017.6mb 62f 64f
4:18 6 9 mph 1017.6mb 62f 64f
4:12 7 8 mph 1017.7mb 62f 64f
4:06 7 9 mph 1017.8mb 62f 64f
4:00 8 9 mph 1017.9mb 62f 64f
3:54 9 10 mph 1018mb 62f 64f
3:48 8 9 mph 1018.1mb 62f 64f
3:42 8 9 mph 1018.1mb 62f 64f
3:36 8 9 mph 1018.2mb 63f 64f
3:30 7 8 mph 1018.2mb 63f 64f
3:24 7 8 mph 1018.3mb 63f 64f
3:18 7
mph
1018.4mb 63f 64f
3:12 6
mph
1018.4mb 63f 64f
3:06 5 6 mph 1018.5mb 63f 64f
3:00 3 6 mph 1018.5mb 63f 64f
2:54 3 6 mph 1018.6mb 63f 64f
2:48 5 6 mph 1018.6mb 63f 64f
2:42 3 6 mph 1018.8mb 63f 64f
2:36 3 6 mph 1018.8mb 63f 64f
2:30 5 6 mph 1018.9mb 63f 64f
2:24 6 7 mph 1019mb 63f 64f
2:18 6 9 mph 1019mb 63f 64f
2:12 6 9 mph 1019.1mb 63f 64f
2:06 6 7 mph 1019.1mb 63f 64f
2:00 5 7 mph 1019.2mb 63f 64f
1:54 3 6 mph 1019.3mb 63f 64f
1:48 6 7 mph 1019.3mb 63f 64f
1:42 6
mph
1019.3mb 63f 65f
1:36 5 6 mph 1019.3mb 63f 66f
1:30 5 6 mph 1019.3mb 63f 64f
1:24 2 5 mph 1019.3mb 63f 66f
1:18 3
mph
1019.4mb 63f 65f
1:12 2 3 mph 1019.4mb 63f 66f
1:06 2 3 mph 1019.5mb 63f 66f
1:00 2 3 mph 1019.5mb 62f 66f
12:54 1 3 mph 1019.6mb 62f 66f
12:48 2 3 mph 1019.7mb 62f 66f
12:42 3 5 mph 1019.7mb 62f 65f
12:36 3 5 mph 1019.8mb 62f 65f
12:30 3 5 mph 1019.8mb 62f 64f
12:24 3 5 mph 1019.9mb 62f 64f
12:18 3 5 mph 1020mb 62f 64f
12:12 5 6 mph 1020mb 62f 64f
12:06 5 6 mph 1020.1mb 62f 64f
12:00 6 7 mph 1020.2mb 62f 63f
11:54 6 7 mph 1020.2mb 62f 63f
11:48 6 7 mph 1020.2mb 62f 64f
11:42 6 7 mph 1020.2mb 62f 63f
11:36 6 7 mph 1020.2mb 62f 63f
11:30 3 6 mph 1020.2mb 62f 64f
11:24 3 5 mph 1020.2mb 62f 64f
11:18 2 3 mph 1020.3mb 62f 64f
11:12 2
mph
1020.4mb 62f 64f
11:06 2 5 mph 1020.5mb 62f 63f
11:00 3
mph
1020.6mb 61f 63f
10:54 3 5 mph 1020.6mb 61f 63f
10:48 2 3 mph 1020.7mb 62f 63f
10:42 3
mph
1020.7mb 62f 63f
10:36 3
mph
1020.7mb 62f 63f
10:30 3
mph
1020.8mb 62f 63f
10:24 1 2 mph 1020.9mb 62f 64f
10:18 2
mph
1021mb 62f 64f
10:12 2 3 mph 1021mb 62f 64f
10:06 5
mph
1021mb 61f 63f
10:00  -  2 mph 1021.1mb 61f 64f
9:54 3 5 mph 1021mb 61f 63f
9:48 2 3 mph 1021mb 61f 63f
9:42 2 3 mph 1021mb 61f 63f
9:36 2
mph
1021mb 60f 63f
9:30  -  3 mph 1021mb 60f 63f
9:24 2 3 mph 1021mb 60f 62f
9:18 3
mph
1021mb 60f 62f
9:12 3 5 mph 1021mb 60f 62f
9:06 3 5 mph 1021mb 59f 62f
9:00 3
mph
1021mb 59f 61f
8:54 2 3 mph 1020.9mb 59f 61f
8:48 2 5 mph 1021mb 59f 61f
8:42 2 3 mph 1021mb 59f 61f
8:36 2 3 mph 1020.9mb 59f 62f
8:30 3 5 mph 1020.9mb 59f 62f
8:24 1 3 mph 1020.8mb 59f 63f
8:18  -  1 mph 1020.8mb 59f 62f
8:12 1 3 mph 1020.9mb 59f 62f
8:06 3 5 mph 1020.8mb 59f 61f
8:00 3 6 mph 1020.8mb 59f 61f
7:54 3 6 mph 1020.8mb 59f 61f
7:48 5 7 mph 1020.6mb 59f 61f
7:42 6 7 mph 1020.6mb 59f 60f
7:36 5 7 mph 1020.6mb 59f 60f
7:30 6 7 mph 1020.6mb 58f 60f
7:24 6
mph
1020.5mb 58f 60f
7:18 6 8 mph 1020.5mb 58f 60f
7:12 6 7 mph 1020.4mb 58f 60f
7:06 6 7 mph 1020.4mb 58f 60f
7:00 6 7 mph 1020.3mb 58f 60f
6:54 6 7 mph 1020.2mb 58f 60f
6:48 6 8 mph 1020.1mb 58f 61f
6:42 7 9 mph 1020mb 58f 61f
6:36 7 9 mph 1020mb 59f 61f
6:30 9 14 mph 1019.9mb 60f 61f
6:24 10 11 mph 1019.9mb 60f 62f
6:18 10 11 mph 1019.9mb 60f 62f
6:12 9 11 mph 1019.9mb 61f 61f
6:06 7 10 mph 1019.9mb 61f 62f
6:00 10 11 mph 1019.9mb 62f 61f
5:54 8 9 mph 1019.9mb 62f 61f
5:48 9 10 mph 1019.9mb 62f 61f
5:42 8 10 mph 1019.8mb 62f 61f
5:36 9 10 mph 1019.8mb 62f 61f
5:30 9 11 mph 1019.8mb 62f 61f
5:24 8 9 mph 1019.7mb 62f 61f
5:18 7 8 mph 1019.6mb 62f 61f
5:12 6 8 mph 1019.7mb 62f 61f
5:06 6 7 mph 1019.6mb 62f 60f
5:00 3 6 mph 1019.6mb 62f 60f
4:54 1 2 mph 1019.6mb 62f 60f
4:48 1 2 mph 1019.6mb 62f 59f
4:42 1 2 mph 1019.7mb 62f 59f
4:36 1 2 mph 1019.6mb 62f 60f
4:30 1 2 mph 1019.6mb 62f 60f
4:24 2 3 mph 1019.6mb 62f 60f
4:18 3
mph
1019.7mb 62f 60f
4:12 2
mph
1019.7mb 62f 59f
4:06 2 3 mph 1019.8mb 63f 59f
4:00 3 5 mph 1019.7mb 63f 59f
3:54 3 5 mph 1019.8mb 63f 60f
3:48 3 6 mph 1020mb 63f 60f
3:42  -  3 mph 1019.8mb 63f 60f
3:36 3 6 mph 1019.8mb 63f 60f
3:30 5 6 mph 1019.8mb 63f 60f
3:24 5 6 mph 1019.8mb 63f 60f
3:18 5 6 mph 1019.9mb 63f 60f
3:12 3 5 mph 1020.1mb 63f 61f
3:06 3 7 mph 1020.2mb 63f 61f
3:00 7 8 mph 1020.1mb 63f 61f
2:54 5 7 mph 1020.2mb 63f 61f
2:48 3 6 mph 1020.3mb 63f 61f
2:42 3 6 mph 1020.6mb 63f 61f
2:36 3
mph
1021mb 63f 61f
2:30 2 5 mph 1021mb 63f 61f
2:24 3 6 mph 1020.8mb 63f 61f
2:18 5 7 mph 1020.8mb 63f 61f
2:12 6 7 mph 1020.9mb 63f 61f
2:06 6
mph
1021.1mb 63f 61f
2:00 5 8 mph 1021.1mb 63f 61f
1:54 6 7 mph 1021.2mb 63f 62f
1:48 6 7 mph 1021.4mb 63f 62f
1:42 6 8 mph 1021.5mb 63f 62f
1:36 5 8 mph 1021.6mb 63f 62f
1:30 5 6 mph 1021.5mb 63f 62f
1:24 6
mph
1021.7mb 63f 62f
1:18 5 7 mph 1021.8mb 63f 62f
1:12 6 7 mph 1021.9mb 63f 62f
1:06 7 8 mph 1022.1mb 63f 62f
1:00 7 8 mph 1022.2mb 63f 62f
12:54 7 10 mph 1022.2mb 63f 62f
12:48 8 9 mph 1022.2mb 63f 62f
12:42 8 9 mph 1022.2mb 63f 62f
12:36 8 10 mph 1022.2mb 63f 62f
12:30 9 10 mph 1022.2mb 63f 62f
12:24 6 9 mph 1022.3mb 63f 62f
12:18 8 10 mph 1022.4mb 63f 62f
12:12 9 10 mph 1022.5mb 63f 62f
12:06 8 9 mph 1022.4mb 63f 62f
12:00 7 9 mph 1022.5mb 63f 62f
Fr 03/24 11:54 8 9 mph 1022.5mb 63f 62f
11:48 7 9 mph 1022.5mb 63f -
11:42 6 8 mph 1022.4mb 63f -
11:36 7 9 mph 1022.5mb 63f -
11:30 8 10 mph 1022.6mb 63f 62f
11:24 8 9 mph 1022.6mb 63f 63f
11:18 8 10 mph 1022.7mb 63f 63f
11:12 7 10 mph 1022.7mb 63f 63f
11:06 9 10 mph 1022.8mb 63f 63f
11:00 9 10 mph 1022.8mb 63f 63f
10:54 9 10 mph 1022.9mb 63f 63f
10:48 8 10 mph 1022.9mb 63f 63f
10:42 8 9 mph 1022.8mb 63f 63f
10:36 7 8 mph 1022.9mb 63f 63f
10:30 8
mph
1022.8mb 63f 63f
10:24 7 8 mph 1022.8mb 63f 63f
10:18 7 9 mph 1022.8mb 63f 63f
10:12 8 10 mph 1022.7mb 63f 63f
10:06 10
mph
1022.8mb 63f 63f
10:00 9
mph
1022.8mb 63f 63f
9:54 8 9 mph 1022.7mb 63f 63f
9:48 8 10 mph 1022.8mb 63f 63f
9:42 10 13 mph 1022.9mb 63f 63f
9:36 11 13 mph 1022.9mb 63f 63f